Time;durP1;ratioP1;P1;durP2;ratioP2;P2;SDS_P1;SDS_P2;PMS_P1;PMS_P2;Temp;Humidity;BMP_temperature;BMP_pressure;BME280_temperature;BME280_humidity;BME280_pressure;Samples;Min_cycle;Max_cycle;Signal;HPM_P1;HPM_P2
2022/08/07 00:00:56;;;;;;;3.33;0.90;;;14.20;99.90;;;;;;5012494;28;20669;-73
2022/08/07 00:03:23;;;;;;;1.93;1.47;;;14.20;99.90;;;;;;5011724;28;20507;-73
2022/08/07 00:05:51;;;;;;;1.20;1.10;;;14.10;99.90;;;;;;5012052;28;20160;-73
2022/08/07 00:08:17;;;;;;;1.60;1.30;;;14.10;99.90;;;;;;5012429;28;20896;-72
2022/08/07 00:10:44;;;;;;;1.87;1.50;;;14.10;99.90;;;;;;5012185;28;20463;-72
2022/08/07 00:13:10;;;;;;;2.53;1.50;;;14.00;99.90;;;;;;5012273;28;20399;-73
2022/08/07 00:15:36;;;;;;;1.57;1.13;;;14.00;99.90;;;;;;5012082;28;20478;-72
2022/08/07 00:18:03;;;;;;;2.10;1.47;;;14.00;99.90;;;;;;5012310;28;20413;-72
2022/08/07 00:20:29;;;;;;;1.33;1.23;;;14.00;99.90;;;;;;5012224;28;20403;-71
2022/08/07 00:22:54;;;;;;;1.40;1.30;;;14.00;99.90;;;;;;5012362;28;20403;-72
2022/08/07 00:25:20;;;;;;;1.67;1.20;;;14.00;99.90;;;;;;5011886;28;20407;-72
2022/08/07 00:27:45;;;;;;;2.10;1.50;;;13.90;99.90;;;;;;5012227;28;20172;-72
2022/08/07 00:30:11;;;;;;;3.17;1.70;;;14.00;99.90;;;;;;5012111;28;20192;-73
2022/08/07 00:32:37;;;;;;;2.63;1.40;;;14.00;99.90;;;;;;5011885;28;20184;-73
2022/08/07 00:35:03;;;;;;;2.43;1.57;;;13.90;99.90;;;;;;5011850;28;20399;-73
2022/08/07 00:37:28;;;;;;;1.30;1.20;;;13.90;99.90;;;;;;5012148;28;20164;-73
2022/08/07 00:39:54;;;;;;;1.90;1.60;;;13.90;99.90;;;;;;5012073;28;20705;-73
2022/08/07 00:42:20;;;;;;;3.17;1.23;;;13.90;99.90;;;;;;5011976;28;20327;-72
2022/08/07 00:44:46;;;;;;;1.80;1.40;;;13.80;99.90;;;;;;5011816;28;20672;-73
2022/08/07 00:47:11;;;;;;;1.90;1.47;;;13.80;99.90;;;;;;5012075;28;20395;-73
2022/08/07 00:49:37;;;;;;;2.97;1.33;;;13.80;99.90;;;;;;5011829;28;20192;-73
2022/08/07 00:52:08;;;;;;;1.83;1.27;;;13.70;99.90;;;;;;5011732;28;20562;-73
2022/08/07 00:54:34;;;;;;;1.20;1.10;;;13.70;99.90;;;;;;5011748;28;20250;-72
2022/08/07 00:56:59;;;;;;;2.07;1.23;;;13.70;99.90;;;;;;5011656;28;20431;-72
2022/08/07 00:59:25;;;;;;;1.20;1.10;;;13.60;99.90;;;;;;5011898;28;20955;-72
2022/08/07 01:01:51;;;;;;;1.83;1.60;;;13.60;99.90;;;;;;5011830;28;20295;-72
2022/08/07 01:04:17;;;;;;;6.27;1.33;;;13.60;99.90;;;;;;5010357;28;20179;-72
2022/08/07 01:06:44;;;;;;;1.80;1.30;;;13.60;99.90;;;;;;5011858;28;20758;-72
2022/08/07 01:09:10;;;;;;;1.73;1.47;;;13.50;99.90;;;;;;5011828;28;20223;-73
2022/08/07 01:11:36;;;;;;;2.40;1.43;;;13.50;99.90;;;;;;5011425;28;20427;-72
2022/08/07 01:14:02;;;;;;;1.93;1.37;;;13.50;99.90;;;;;;5011812;28;20681;-72
2022/08/07 01:16:28;;;;;;;1.20;1.00;;;13.40;99.90;;;;;;5014376;28;20403;-73
2022/08/07 01:18:53;;;;;;;1.37;1.23;;;13.40;99.90;;;;;;5015473;28;20438;-73
2022/08/07 01:21:22;;;;;;;1.77;1.33;;;13.40;99.90;;;;;;5015295;28;20838;-73
2022/08/07 01:23:50;;;;;;;1.73;1.17;;;13.40;99.90;;;;;;5014109;28;20218;-73
2022/08/07 01:26:19;;;;;;;1.87;1.50;;;13.30;99.90;;;;;;5014925;28;20403;-73
2022/08/07 01:28:47;;;;;;;2.30;1.83;;;13.30;99.90;;;;;;5015123;28;20521;-73
2022/08/07 01:31:14;;;;;;;1.77;1.33;;;13.30;99.90;;;;;;5014961;28;20457;-73
2022/08/07 01:33:40;;;;;;;1.37;1.20;;;13.30;99.90;;;;;;5015208;28;20483;-73
2022/08/07 01:36:08;;;;;;;2.10;1.60;;;13.20;99.90;;;;;;5013555;28;20935;-73
2022/08/07 01:38:34;;;;;;;2.67;1.90;;;13.20;99.90;;;;;;5015030;28;20403;-73
2022/08/07 01:41:02;;;;;;;2.13;1.67;;;13.10;99.90;;;;;;5014994;28;20427;-72
2022/08/07 01:43:29;;;;;;;2.17;1.60;;;13.10;99.90;;;;;;5014961;28;20795;-72
2022/08/07 01:45:56;;;;;;;1.80;1.60;;;13.10;99.90;;;;;;5014627;28;20403;-72
2022/08/07 01:48:23;;;;;;;8.30;1.70;;;13.10;99.90;;;;;;5014913;28;20403;-72
2022/08/07 01:50:55;;;;;;;2.83;2.00;;;13.10;99.90;;;;;;5014587;28;20465;-72
2022/08/07 01:53:22;;;;;;;2.50;1.70;;;13.10;99.90;;;;;;5014578;28;20448;-72
2022/08/07 01:55:56;;;;;;;2.07;1.43;;;13.00;99.90;;;;;;5014458;28;20414;-73
2022/08/07 01:58:26;;;;;;;1.50;1.40;;;13.00;99.90;;;;;;5014727;28;20445;-73
2022/08/07 02:01:02;;;;;;;2.37;1.30;;;13.00;99.90;;;;;;5014510;28;20523;-73
2022/08/07 02:03:29;;;;;;;2.83;2.00;;;12.90;99.90;;;;;;5014578;28;20418;-73
2022/08/07 02:06:02;;;;;;;2.17;1.97;;;12.90;99.90;;;;;;5014331;28;20790;-73
2022/08/07 02:08:29;;;;;;;3.67;1.47;;;12.90;99.90;;;;;;5014504;28;20418;-73
2022/08/07 02:10:58;;;;;;;3.40;1.70;;;12.90;99.90;;;;;;5013078;28;20467;-73
2022/08/07 02:13:26;;;;;;;3.20;1.30;;;12.90;99.90;;;;;;5014385;28;20419;-73
2022/08/07 02:15:53;;;;;;;2.07;1.70;;;12.90;99.90;;;;;;5014038;28;20411;-73
2022/08/07 02:18:20;;;;;;;2.97;1.50;;;12.90;99.90;;;;;;5014005;28;20399;-73
2022/08/07 02:20:50;;;;;;;2.13;1.80;;;12.80;99.90;;;;;;5014043;28;20427;-73
2022/08/07 02:23:18;;;;;;;2.40;1.67;;;12.80;99.90;;;;;;5014050;28;20434;-71
2022/08/07 02:25:45;;;;;;;3.20;1.70;;;12.80;99.90;;;;;;5013919;28;20403;-72
2022/08/07 02:28:13;;;;;;;3.33;2.03;;;12.80;99.90;;;;;;5012004;28;20446;-73
2022/08/07 02:30:40;;;;;;;2.57;2.10;;;12.70;99.90;;;;;;5013812;28;20541;-73
2022/08/07 02:33:06;;;;;;;1.80;1.70;;;12.70;99.90;;;;;;5014000;28;20407;-73
2022/08/07 02:35:33;;;;;;;1.80;1.33;;;12.70;99.90;;;;;;5013722;28;20410;-72
2022/08/07 02:38:02;;;;;;;2.07;1.73;;;12.70;99.90;;;;;;5014058;28;20410;-72
2022/08/07 02:40:30;;;;;;;2.33;1.73;;;12.70;99.90;;;;;;5013779;28;20437;-72
2022/08/07 02:42:57;;;;;;;4.83;2.87;;;12.60;99.90;;;;;;5013851;28;20919;-71
2022/08/07 02:45:25;;;;;;;4.00;2.37;;;12.60;99.90;;;;;;5013400;28;20765;-73
2022/08/07 02:47:51;;;;;;;5.00;1.80;;;12.60;99.90;;;;;;5013790;28;20769;-71
2022/08/07 02:50:17;;;;;;;2.23;2.00;;;12.60;99.90;;;;;;5013571;28;20447;-72
2022/08/07 02:52:56;;;;;;;2.80;1.77;;;12.50;99.90;;;;;;5012450;28;20992;-72
2022/08/07 02:55:26;;;;;;;2.70;1.67;;;12.50;99.90;;;;;;5013317;28;20171;-72
2022/08/07 02:57:54;;;;;;;4.27;2.00;;;12.50;99.90;;;;;;5013539;28;20490;-72
2022/08/07 03:00:21;;;;;;;2.03;1.80;;;12.50;99.90;;;;;;5012085;28;20416;-72
2022/08/07 03:02:51;;;;;;;2.17;1.90;;;12.40;99.90;;;;;;5012236;28;20928;-72
2022/08/07 03:05:18;;;;;;;2.07;1.50;;;12.40;99.90;;;;;;5013054;28;20417;-72
2022/08/07 03:07:43;;;;;;;3.83;1.67;;;12.40;99.90;;;;;;5012077;28;20478;-72
2022/08/07 03:10:10;;;;;;;4.37;2.13;;;12.40;99.90;;;;;;5013197;28;20487;-73
2022/08/07 03:12:37;;;;;;;1.80;1.47;;;12.40;99.90;;;;;;5013276;28;20199;-73
2022/08/07 03:15:05;;;;;;;2.27;2.00;;;12.30;99.90;;;;;;5012979;28;20893;-72
2022/08/07 03:17:32;;;;;;;1.73;1.50;;;12.30;99.90;;;;;;5011943;28;20403;-73
2022/08/07 03:19:58;;;;;;;1.70;1.60;;;12.30;99.90;;;;;;5013158;28;20414;-71
2022/08/07 03:22:24;;;;;;;3.47;2.63;;;12.30;99.90;;;;;;5013116;28;20939;-73
2022/08/07 03:24:49;;;;;;;1.73;1.60;;;12.30;99.90;;;;;;5012733;28;20407;-72
2022/08/07 03:27:16;;;;;;;3.30;1.53;;;12.30;99.90;;;;;;5013190;28;20410;-72
2022/08/07 03:29:58;;;;;;;1.73;1.60;;;12.20;99.90;;;;;;5013498;28;20200;-72
2022/08/07 03:32:43;;;;;;;6.70;1.97;;;12.20;99.90;;;;;;5013679;28;20431;-72
2022/08/07 03:35:15;;;;;;;1.77;1.63;;;12.20;99.90;;;;;;5013512;28;20435;-72
2022/08/07 03:37:43;;;;;;;2.43;2.13;;;12.20;99.90;;;;;;5012744;28;20423;-72
2022/08/07 03:40:14;;;;;;;2.17;1.70;;;12.20;99.90;;;;;;5013508;28;20491;-72
2022/08/07 03:42:40;;;;;;;2.40;1.90;;;12.10;99.90;;;;;;5011516;28;20439;-71
2022/08/07 03:45:06;;;;;;;1.90;1.27;;;12.10;99.90;;;;;;5012550;28;20434;-72
2022/08/07 03:47:32;;;;;;;1.80;1.57;;;12.10;99.90;;;;;;5012632;28;20490;-71
2022/08/07 03:49:58;;;;;;;6.90;2.30;;;12.10;99.90;;;;;;5012653;28;20567;-72
2022/08/07 03:52:26;;;;;;;1.93;1.47;;;12.10;99.90;;;;;;5012436;28;20208;-72
2022/08/07 03:54:53;;;;;;;2.07;1.53;;;12.00;99.90;;;;;;5012353;28;20399;-72
2022/08/07 03:57:20;;;;;;;2.13;1.50;;;12.00;99.90;;;;;;5012492;28;20403;-72
2022/08/07 03:59:46;;;;;;;6.77;2.00;;;12.00;99.90;;;;;;5012560;28;20403;-72
2022/08/07 04:02:13;;;;;;;4.27;1.70;;;11.90;99.90;;;;;;5011075;28;20437;-72
2022/08/07 04:04:41;;;;;;;1.77;1.50;;;11.90;99.90;;;;;;5012240;28;20407;-72
2022/08/07 04:07:07;;;;;;;2.00;1.90;;;11.90;99.90;;;;;;5012326;28;20769;-72
2022/08/07 04:09:34;;;;;;;5.13;1.60;;;11.90;99.90;;;;;;5012340;28;20450;-72
2022/08/07 04:12:01;;;;;;;2.40;1.57;;;11.90;99.90;;;;;;5012284;28;20274;-72
2022/08/07 04:14:27;;;;;;;2.20;1.90;;;11.80;99.90;;;;;;5011996;28;20414;-72
2022/08/07 04:16:53;;;;;;;2.53;1.87;;;11.80;99.90;;;;;;5012173;28;20490;-72
2022/08/07 04:19:19;;;;;;;1.83;1.63;;;11.80;99.90;;;;;;5012404;28;20817;-72
2022/08/07 04:21:45;;;;;;;2.57;2.37;;;11.80;99.90;;;;;;5012144;28;20994;-72
2022/08/07 04:24:11;;;;;;;2.13;1.77;;;11.80;99.90;;;;;;5012187;28;20175;-73
2022/08/07 04:26:40;;;;;;;2.47;1.87;;;11.80;99.90;;;;;;5011992;28;20830;-72
2022/08/07 04:29:08;;;;;;;2.83;1.47;;;11.80;99.90;;;;;;5010893;28;20509;-72
2022/08/07 04:31:39;;;;;;;2.13;1.80;;;11.80;99.90;;;;;;5012012;28;20419;-72
2022/08/07 04:34:06;;;;;;;2.37;1.97;;;11.80;99.90;;;;;;5012173;28;20399;-72
2022/08/07 04:36:33;;;;;;;1.70;1.60;;;11.80;99.90;;;;;;5011914;28;20402;-72
2022/08/07 04:38:59;;;;;;;2.17;1.50;;;11.80;99.90;;;;;;5012029;28;20486;-72
2022/08/07 04:41:24;;;;;;;1.60;1.50;;;11.80;99.90;;;;;;5011987;28;20546;-72
2022/08/07 04:43:50;;;;;;;1.83;1.60;;;11.80;99.90;;;;;;5010736;28;20423;-72
2022/08/07 04:46:37;;;;;;;2.03;1.83;;;11.90;99.90;;;;;;5011759;28;20676;-72
2022/08/07 04:49:29;;;;;;;1.73;1.60;;;11.90;99.90;;;;;;5011952;28;20413;-73
2022/08/07 04:52:06;;;;;;;2.40;1.70;;;11.90;99.90;;;;;;5015802;28;20446;-72
2022/08/07 04:54:39;;;;;;;1.33;1.23;;;11.90;99.90;;;;;;5015630;28;20807;-72
2022/08/07 04:57:17;;;;;;;1.40;1.20;;;11.90;99.90;;;;;;5015800;28;20407;-72
2022/08/07 04:59:58;;;;;;;1.50;1.30;;;12.00;99.90;;;;;;5015853;28;20414;-72
2022/08/07 05:02:30;;;;;;;3.73;1.57;;;12.00;99.90;;;;;;5015743;28;20423;-72
2022/08/07 05:05:03;;;;;;;2.40;1.40;;;12.00;99.90;;;;;;5015464;28;20399;-72
2022/08/07 05:07:39;;;;;;;3.00;1.40;;;12.00;99.90;;;;;;5015694;28;20408;-72
2022/08/07 05:10:16;;;;;;;1.63;1.00;;;12.10;99.90;;;;;;5015671;28;20445;-72
2022/08/07 05:13:05;;;;;;;1.40;1.30;;;12.10;99.90;;;;;;5015553;28;20399;-72
2022/08/07 05:15:36;;;;;;;2.10;1.90;;;12.10;99.90;;;;;;5013786;28;20411;-72
2022/08/07 05:18:06;;;;;;;1.93;1.33;;;12.20;99.90;;;;;;5015459;28;20403;-73
2022/08/07 05:20:37;;;;;;;1.30;1.20;;;12.30;99.90;;;;;;5015475;28;20931;-72
2022/08/07 05:23:08;;;;;;;2.30;1.70;;;12.30;99.90;;;;;;5015362;28;20407;-72
2022/08/07 05:25:35;;;;;;;2.03;1.67;;;12.40;99.90;;;;;;5014946;28;20407;-72
2022/08/07 05:28:03;;;;;;;1.60;1.23;;;12.40;99.90;;;;;;5015236;28;20415;-72
2022/08/07 05:30:28;;;;;;;2.23;2.03;;;12.50;99.90;;;;;;5014917;28;20450;-72
2022/08/07 05:32:55;;;;;;;1.30;1.10;;;12.60;99.90;;;;;;5015449;28;20403;-73
2022/08/07 05:35:22;;;;;;;1.40;1.30;;;12.70;99.90;;;;;;5014856;28;20427;-73
2022/08/07 05:37:48;;;;;;;2.33;1.90;;;12.90;99.90;;;;;;5015206;28;20403;-72
2022/08/07 05:40:16;;;;;;;1.70;1.50;;;13.10;99.90;;;;;;5014914;28;20403;-72
2022/08/07 05:42:43;;;;;;;2.20;1.50;;;13.30;99.90;;;;;;5015034;28;20920;-73
2022/08/07 05:45:10;;;;;;;2.20;1.53;;;13.50;99.90;;;;;;5014709;28;20414;-73
2022/08/07 05:47:36;;;;;;;1.97;1.47;;;13.80;99.90;;;;;;5014972;28;20415;-72
2022/08/07 05:50:02;;;;;;;2.47;1.43;;;14.10;99.90;;;;;;5014794;28;20866;-73
2022/08/07 05:52:28;;;;;;;2.77;1.60;;;14.40;99.90;;;;;;5014747;28;20876;-72
2022/08/07 05:54:53;;;;;;;1.90;1.70;;;14.80;99.90;;;;;;5014483;28;20427;-72
2022/08/07 05:57:19;;;;;;;2.73;1.80;;;15.30;99.90;;;;;;5014831;28;20173;-73
2022/08/07 05:59:46;;;;;;;1.40;1.30;;;15.80;99.90;;;;;;5013496;28;20232;-73
2022/08/07 06:02:15;;;;;;;1.93;1.50;;;16.50;99.90;;;;;;5013664;28;20986;-73
2022/08/07 06:04:47;;;;;;;1.40;1.30;;;17.20;99.90;;;;;;5014379;28;20423;-73
2022/08/07 06:07:14;;;;;;;3.00;1.80;;;18.00;99.90;;;;;;5014592;28;20438;-73
2022/08/07 06:09:40;;;;;;;4.90;2.17;;;18.70;99.90;;;;;;5014382;28;20516;-73
2022/08/07 06:12:06;;;;;;;1.93;1.70;;;19.40;99.90;;;;;;5014484;28;20426;-73
2022/08/07 06:14:32;;;;;;;1.60;1.43;;;20.00;99.90;;;;;;5014179;28;20403;-73
2022/08/07 06:16:59;;;;;;;3.50;1.87;;;20.40;99.90;;;;;;5012998;28;20522;-73
2022/08/07 06:19:26;;;;;;;1.93;1.83;;;20.80;99.90;;;;;;5014305;28;20546;-73
2022/08/07 06:21:53;;;;;;;1.73;1.60;;;21.20;99.90;;;;;;5014086;28;20431;-73
2022/08/07 06:24:18;;;;;;;3.90;1.80;;;21.60;99.90;;;;;;5013922;28;20418;-73
2022/08/07 06:26:44;;;;;;;2.03;1.83;;;22.10;99.90;;;;;;5014125;28;20807;-73
2022/08/07 06:29:10;;;;;;;1.70;1.50;;;22.50;99.90;;;;;;5012860;28;20294;-73
2022/08/07 06:31:35;;;;;;;2.10;1.83;;;22.80;99.90;;;;;;5014009;28;20427;-73
2022/08/07 06:34:02;;;;;;;2.47;1.70;;;23.20;99.90;;;;;;5014036;28;20522;-73
2022/08/07 06:36:29;;;;;;;2.20;2.00;;;23.60;99.40;;;;;;5013730;28;20656;-73
2022/08/07 06:38:55;;;;;;;3.97;1.70;;;24.00;97.20;;;;;;5013934;28;20410;-73
2022/08/07 06:41:37;;;;;;;2.60;1.77;;;24.30;93.90;;;;;;5013834;28;20754;-74
2022/08/07 06:44:04;;;;;;;1.67;1.57;;;24.70;91.50;;;;;;5013888;28;20915;-73
2022/08/07 06:46:30;;;;;;;2.03;1.67;;;25.20;90.00;;;;;;5013503;28;20400;-73
2022/08/07 06:48:55;;;;;;;2.10;1.87;;;25.60;86.60;;;;;;5013510;28;20410;-73
2022/08/07 06:51:26;;;;;;;1.60;1.50;;;26.00;83.10;;;;;;5013571;28;20685;-74
2022/08/07 06:53:53;;;;;;;2.90;1.90;;;26.60;74.80;;;;;;5013767;28;20251;-73
2022/08/07 06:56:38;;;;;;;1.40;1.30;;;26.90;73.60;;;;;;5013466;28;20399;-73
2022/08/07 06:59:06;;;;;;;1.67;1.47;;;27.30;73.00;;;;;;5013608;28;20909;-74
2022/08/07 07:01:33;;;;;;;2.17;1.80;;;27.90;66.80;;;;;;5013410;28;20426;-74
2022/08/07 07:03:59;;;;;;;1.40;1.17;;;28.50;62.10;;;;;;5013628;28;20415;-74
2022/08/07 07:06:25;;;;;;;1.70;1.60;;;28.80;56.50;;;;;;5013237;28;20403;-74
2022/08/07 07:08:51;;;;;;;2.00;1.50;;;29.30;52.90;;;;;;5013331;28;20396;-74
2022/08/07 07:11:16;;;;;;;2.10;1.50;;;29.90;53.80;;;;;;5013408;28;20184;-74
2022/08/07 07:13:48;;;;;;;1.53;1.43;;;30.20;52.50;;;;;;5013062;28;20160;-73
2022/08/07 07:16:19;;;;;;;2.00;1.30;;;30.80;50.10;;;;;;5013057;28;20880;-74
2022/08/07 07:19:03;;;;;;;1.50;1.00;;;31.30;49.30;;;;;;5013176;28;20438;-74
2022/08/07 07:21:35;;;;;;;1.40;1.30;;;31.40;45.40;;;;;;5013339;28;20447;-74
2022/08/07 07:24:01;;;;;;;1.30;1.20;;;32.10;44.10;;;;;;5012781;28;20927;-74
2022/08/07 07:26:32;;;;;;;1.97;1.10;;;32.60;42.40;;;;;;5012796;28;20366;-73
2022/08/07 07:29:04;;;;;;;1.67;1.30;;;32.90;41.80;;;;;;5012669;28;20247;-74
2022/08/07 07:31:54;;;;;;;1.67;1.30;;;33.30;39.30;;;;;;5012473;28;20426;-74
2022/08/07 07:34:28;;;;;;;1.60;1.27;;;33.70;39.80;;;;;;5012650;28;20403;-74
2022/08/07 07:36:56;;;;;;;1.30;1.10;;;34.20;37.70;;;;;;5012814;28;20379;-74
2022/08/07 07:39:24;;;;;;;1.67;1.20;;;34.60;37.30;;;;;;5012895;28;20399;-73
2022/08/07 07:41:50;;;;;;;1.10;1.00;;;35.00;37.00;;;;;;5012808;28;20931;-74
2022/08/07 07:44:19;;;;;;;1.43;1.30;;;35.40;35.70;;;;;;5012618;28;20411;-74
2022/08/07 07:46:47;;;;;;;1.20;1.10;;;35.90;36.00;;;;;;5012749;28;20498;-74
2022/08/07 07:49:16;;;;;;;2.33;1.30;;;36.60;34.50;;;;;;5012712;28;20502;-74
2022/08/07 07:51:44;;;;;;;1.70;1.60;;;37.00;34.00;;;;;;5012523;28;20479;-74
2022/08/07 07:54:11;;;;;;;1.30;1.20;;;37.40;34.30;;;;;;5012557;28;20891;-74
2022/08/07 07:56:38;;;;;;;1.57;1.30;;;38.00;32.80;;;;;;5012502;28;20470;-74
2022/08/07 07:59:05;;;;;;;5.70;1.33;;;38.30;31.80;;;;;;5012563;28;20436;-74
2022/08/07 08:01:31;;;;;;;1.30;1.20;;;38.70;31.70;;;;;;5012511;28;20440;-74
2022/08/07 08:04:02;;;;;;;1.37;1.27;;;38.80;30.40;;;;;;5012285;28;20962;-74
2022/08/07 08:06:30;;;;;;;1.30;1.20;;;38.60;30.70;;;;;;5012240;28;20411;-74
2022/08/07 08:08:57;;;;;;;1.47;1.37;;;38.80;30.40;;;;;;5011186;28;21011;-74
2022/08/07 08:11:24;;;;;;;1.27;1.17;;;39.30;31.10;;;;;;5012512;28;20464;-74
2022/08/07 08:13:49;;;;;;;1.33;1.23;;;39.80;29.10;;;;;;5012403;28;20389;-74
2022/08/07 08:16:19;;;;;;;2.10;1.37;;;40.30;28.10;;;;;;5012101;28;20485;-72
2022/08/07 08:18:46;;;;;;;1.20;1.10;;;40.40;29.10;;;;;;5012339;28;20255;-72
2022/08/07 08:27:03;;;;;;;1.40;1.20;;;41.60;27.40;;;;;;5012320;28;20911;-72
2022/08/07 08:29:40;;;;;;;1.10;1.00;;;42.00;27.90;;;;;;5012209;28;20795;-72
2022/08/07 08:32:10;;;;;;;2.07;1.20;;;42.00;27.70;;;;;;5012060;28;20402;-72
2022/08/07 08:34:38;;;;;;;5.53;1.40;;;42.70;26.40;;;;;;5011901;28;20892;-72
2022/08/07 08:37:06;;;;;;;1.40;1.30;;;42.70;26.00;;;;;;5012128;28;20872;-72
2022/08/07 08:39:33;;;;;;;1.40;1.30;;;42.60;26.20;;;;;;5012071;28;20414;-72
2022/08/07 08:42:06;;;;;;;1.47;1.37;;;42.70;26.20;;;;;;5012232;28;20405;-72
2022/08/07 08:44:59;;;;;;;1.20;1.10;;;42.70;25.30;;;;;;5010576;28;20415;-72
2022/08/07 08:47:41;;;;;;;1.40;1.30;;;43.40;25.50;;;;;;5012066;28;20746;-72
2022/08/07 08:50:19;;;;;;;2.00;1.67;;;43.50;25.10;;;;;;5011980;28;20794;-72
2022/08/07 08:53:03;;;;;;;1.43;1.33;;;43.60;25.50;;;;;;5010568;28;20914;-72
2022/08/07 08:55:32;;;;;;;1.70;1.60;;;43.70;25.70;;;;;;5011669;28;20482;-72
2022/08/07 08:58:13;;;;;;;2.50;1.77;;;44.00;26.30;;;;;;5011830;28;20401;-72
2022/08/07 09:00:49;;;;;;;1.53;1.43;;;44.50;26.40;;;;;;5011854;28;20972;-72
2022/08/07 09:03:32;;;;;;;2.53;1.77;;;44.80;25.10;;;;;;5010674;28;20443;-72
2022/08/07 09:06:10;;;;;;;1.50;1.40;;;45.30;25.50;;;;;;5011706;28;20890;-72
2022/08/07 09:09:14;;;;;;;1.50;1.40;;;45.90;24.40;;;;;;5011843;28;20403;-72
2022/08/07 09:11:51;;;;;;;1.90;1.80;;;46.30;25.00;;;;;;5009435;28;20943;-72
2022/08/07 09:14:33;;;;;;;1.63;1.53;;;46.70;25.00;;;;;;5009308;28;20410;-72
2022/08/07 09:17:30;;;;;;;2.10;1.70;;;47.00;24.10;;;;;;5010726;28;20415;-72
2022/08/07 09:20:11;;;;;;;1.70;1.60;;;47.10;23.80;;;;;;5011660;28;20529;-72
2022/08/07 09:22:37;;;;;;;1.60;1.50;;;47.20;23.10;;;;;;5011713;28;21058;-72
2022/08/07 09:25:15;;;;;;;1.70;1.60;;;47.10;23.60;;;;;;5011369;28;20490;-72
2022/08/07 09:27:54;;;;;;;1.67;1.57;;;47.10;23.60;;;;;;5011707;28;20164;-72
2022/08/07 09:30:23;;;;;;;1.90;1.80;;;47.30;23.70;;;;;;5011532;28;20472;-72
2022/08/07 09:33:05;;;;;;;2.50;1.90;;;47.40;23.30;;;;;;5011665;28;20400;-72
2022/08/07 09:36:08;;;;;;;1.80;1.70;;;47.80;23.20;;;;;;5011520;28;20549;-72
2022/08/07 09:38:45;;;;;;;1.87;1.77;;;47.90;23.10;;;;;;5015072;28;20493;-72
2022/08/07 09:41:34;;;;;;;1.87;1.77;;;48.10;23.30;;;;;;5015000;28;20549;-72
2022/08/07 09:44:02;;;;;;;1.90;1.80;;;48.40;23.40;;;;;;5014870;28;20765;-72
2022/08/07 09:46:58;;;;;;;1.80;1.70;;;48.60;22.90;;;;;;5014717;28;20503;-72
2022/08/07 09:49:52;;;;;;;2.13;1.90;;;48.90;22.90;;;;;;5014932;28;20403;-72
2022/08/07 09:52:28;;;;;;;1.90;1.80;;;48.70;22.00;;;;;;5014592;28;20443;-72
2022/08/07 09:55:03;;;;;;;1.90;1.80;;;48.50;22.40;;;;;;5014587;28;20465;-72
2022/08/07 09:58:03;;;;;;;1.90;1.70;;;48.70;22.40;;;;;;5014829;28;20391;-72
2022/08/07 10:00:42;;;;;;;2.10;1.90;;;49.00;22.20;;;;;;5014514;28;20447;-72
2022/08/07 10:03:39;;;;;;;1.87;1.77;;;49.30;22.00;;;;;;5014647;28;20395;-72
2022/08/07 10:06:20;;;;;;;1.70;1.60;;;49.40;22.20;;;;;;5012423;28;20896;-72
2022/08/07 10:09:10;;;;;;;1.90;1.80;;;49.50;22.10;;;;;;5014490;28;20768;-72
2022/08/07 10:11:51;;;;;;;2.10;2.00;;;49.40;21.40;;;;;;5014423;28;20423;-72
2022/08/07 10:14:31;;;;;;;2.10;2.00;;;49.60;21.30;;;;;;5014155;28;20407;-72
2022/08/07 10:17:31;;;;;;;2.33;2.23;;;49.50;21.50;;;;;;5014357;28;20453;-72
2022/08/07 10:20:11;;;;;;;1.93;1.83;;;49.30;21.70;;;;;;5014436;28;20465;-71
2022/08/07 10:23:15;;;;;;;1.87;1.77;;;49.40;21.20;;;;;;5014660;28;20423;-72
2022/08/07 10:26:17;;;;;;;2.07;1.97;;;49.50;21.60;;;;;;5013551;28;20932;-72
2022/08/07 10:29:06;;;;;;;2.47;2.37;;;49.60;21.20;;;;;;5014298;28;20402;-72
2022/08/07 10:31:46;;;;;;;2.10;2.00;;;50.30;21.60;;;;;;5014175;28;20775;-73
2022/08/07 10:34:37;;;;;;;2.00;1.90;;;50.80;21.60;;;;;;5012923;28;20418;-73
2022/08/07 10:37:40;;;;;;;2.07;1.97;;;50.60;21.10;;;;;;5014703;28;20422;-73
2022/08/07 10:40:29;;;;;;;2.20;1.93;;;50.80;20.90;;;;;;5014205;28;20955;-72
2022/08/07 10:43:12;;;;;;;2.10;2.00;;;51.20;20.20;;;;;;5014459;28;20399;-73
2022/08/07 10:45:45;;;;;;;2.20;2.10;;;51.10;20.90;;;;;;5014336;28;20438;-73
2022/08/07 10:48:14;;;;;;;2.07;1.97;;;50.70;21.20;;;;;;5013470;28;20431;-71
2022/08/07 10:50:53;;;;;;;2.10;2.00;;;50.80;21.00;;;;;;5013848;28;20431;-71
2022/08/07 10:53:42;;;;;;;2.13;2.03;;;50.80;20.10;;;;;;5014087;28;20398;-72
2022/08/07 10:56:44;;;;;;;2.10;2.00;;;50.50;20.50;;;;;;5013755;28;20457;-71
2022/08/07 10:59:34;;;;;;;1.97;1.87;;;50.40;20.70;;;;;;5013687;28;20896;-71
2022/08/07 11:02:27;;;;;;;1.80;1.70;;;50.40;20.80;;;;;;5013460;28;20423;-71
2022/08/07 11:05:10;;;;;;;2.10;2.00;;;50.00;20.90;;;;;;5012965;28;20526;-71
2022/08/07 11:07:38;;;;;;;2.20;2.10;;;50.10;20.70;;;;;;5013368;28;20494;-72
2022/08/07 11:10:13;;;;;;;1.97;1.87;;;50.80;20.70;;;;;;5012133;28;20418;-72
2022/08/07 11:12:49;;;;;;;2.10;2.00;;;51.00;20.50;;;;;;5013217;28;20489;-71
2022/08/07 11:15:22;;;;;;;2.13;2.03;;;51.40;19.20;;;;;;5013429;28;20498;-71
2022/08/07 11:17:51;;;;;;;2.30;2.10;;;50.90;20.60;;;;;;5013247;28;20403;-71
2022/08/07 11:20:43;;;;;;;2.70;2.50;;;51.10;19.90;;;;;;5013461;28;20541;-72
2022/08/07 11:23:08;;;;;;;2.80;2.60;;;51.10;20.30;;;;;;5013278;28;20480;-72
2022/08/07 11:25:36;;;;;;;2.57;2.47;;;51.40;20.20;;;;;;5012912;28;20442;-72
2022/08/07 11:28:07;;;;;;;2.10;2.00;;;51.40;20.50;;;;;;5013071;28;20169;-72
2022/08/07 11:31:05;;;;;;;2.73;2.53;;;51.60;20.50;;;;;;5013094;28;20407;-71
2022/08/07 11:33:41;;;;;;;2.50;2.30;;;51.80;20.10;;;;;;5012145;28;20426;-72
2022/08/07 11:36:22;;;;;;;2.90;2.70;;;52.00;19.70;;;;;;5012715;28;20445;-72
2022/08/07 11:39:24;;;;;;;3.13;2.93;;;52.20;20.40;;;;;;5011707;28;20492;-72
2022/08/07 11:42:02;;;;;;;2.50;2.40;;;52.20;20.10;;;;;;5013053;28;20495;-72
2022/08/07 11:44:33;;;;;;;3.43;3.20;;;52.10;19.80;;;;;;5012582;28;20938;-71
2022/08/07 11:47:32;;;;;;;2.67;2.57;;;51.70;19.80;;;;;;5012713;28;20541;-72
2022/08/07 11:50:10;;;;;;;2.40;2.30;;;51.90;19.90;;;;;;5012782;28;20426;-72
2022/08/07 11:52:48;;;;;;;2.30;2.20;;;52.00;19.80;;;;;;5012554;28;20807;-72
2022/08/07 11:55:52;;;;;;;2.50;2.40;;;51.80;19.80;;;;;;5012428;28;20505;-71
2022/08/07 11:59:02;;;;;;;2.70;2.50;;;52.10;20.20;;;;;;5013130;28;20928;-71
2022/08/07 12:01:40;;;;;;;2.30;2.20;;;52.10;20.20;;;;;;5010024;28;20446;-73
2022/08/07 12:04:41;;;;;;;2.60;2.40;;;52.20;19.90;;;;;;5012787;28;20511;-73
2022/08/07 12:07:07;;;;;;;2.60;2.50;;;52.70;19.60;;;;;;5013107;28;20421;-73
2022/08/07 12:09:49;;;;;;;2.70;2.60;;;52.60;19.20;;;;;;5012746;28;20398;-73
2022/08/07 12:12:31;;;;;;;2.10;2.00;;;52.80;19.70;;;;;;5012721;28;20196;-71
2022/08/07 12:15:04;;;;;;;2.47;2.37;;;52.60;19.70;;;;;;5012328;28;20402;-72
2022/08/07 12:17:38;;;;;;;5.63;2.50;;;52.70;19.60;;;;;;5012404;28;20879;-72
2022/08/07 12:20:09;;;;;;;2.30;2.20;;;52.40;19.50;;;;;;5012606;28;20494;-73
2022/08/07 12:22:45;;;;;;;2.53;2.43;;;52.40;19.10;;;;;;5012460;28;20419;-73
2022/08/07 12:28:10;;;;;;;2.30;2.20;;;52.30;19.90;;;;;;5012314;28;20391;-72
2022/08/07 12:30:40;;;;;;;2.20;2.10;;;52.30;19.40;;;;;;5012068;28;20557;-72
2022/08/07 12:33:18;;;;;;;1.90;1.80;;;52.10;20.50;;;;;;5012453;28;20427;-72
2022/08/07 12:35:50;;;;;;;2.63;2.53;;;51.60;20.10;;;;;;5011958;28;20880;-72
2022/08/07 12:38:17;;;;;;;2.43;2.23;;;51.20;20.10;;;;;;5012197;28;20418;-72
2022/08/07 12:40:45;;;;;;;2.10;2.00;;;51.20;20.10;;;;;;5011811;28;20459;-72
2022/08/07 12:43:13;;;;;;;2.20;2.10;;;51.20;20.50;;;;;;5010860;28;20415;-72
2022/08/07 12:45:54;;;;;;;2.17;2.07;;;51.20;20.40;;;;;;5011455;28;20958;-71
2022/08/07 12:48:51;;;;;;;2.70;2.07;;;51.20;20.40;;;;;;5017474;28;20426;-71
2022/08/07 12:51:24;;;;;;;1.80;1.70;;;51.20;20.10;;;;;;5031386;28;20951;-72
2022/08/07 12:54:08;;;;;;;2.13;2.03;;;50.80;20.50;;;;;;5012025;28;20452;-72
2022/08/07 12:56:48;;;;;;;2.10;2.00;;;50.80;20.30;;;;;;5011818;28;20773;-72
2022/08/07 12:59:20;;;;;;;2.73;1.73;;;50.70;20.00;;;;;;5011961;28;20809;-72
2022/08/07 13:02:11;;;;;;;1.70;1.60;;;50.40;20.10;;;;;;5011269;28;20423;-72
2022/08/07 13:04:43;;;;;;;1.67;1.57;;;50.10;20.30;;;;;;5011829;28;20846;-71
2022/08/07 13:07:46;;;;;;;1.93;1.83;;;50.00;20.30;;;;;;5012300;28;20403;-72
2022/08/07 13:10:24;;;;;;;1.83;1.70;;;50.00;20.40;;;;;;5012441;28;20430;-71
2022/08/07 13:13:19;;;;;;;1.70;1.60;;;49.30;20.30;;;;;;5016175;28;20799;-71
2022/08/07 13:16:09;;;;;;;1.63;1.53;;;49.30;20.80;;;;;;5014195;28;20462;-71
2022/08/07 13:18:56;;;;;;;1.60;1.50;;;49.20;20.80;;;;;;5015598;28;20415;-71
2022/08/07 13:21:30;;;;;;;1.60;1.50;;;49.10;21.20;;;;;;5014187;28;20512;-72
2022/08/07 13:24:07;;;;;;;1.60;1.50;;;49.10;21.00;;;;;;5015471;28;20570;-72
2022/08/07 13:26:42;;;;;;;1.50;1.40;;;48.80;20.30;;;;;;5015223;28;20421;-72